Overview Statistics Trail Chart Weather Telemetry Raw packets
 

This is the latest recevied weather packets stored in our database for station/object KB4RFE. If no packets are shown the sender has not sent any weather packets the latest 10 day(s).

<< 51 52 53 54 55 56 57 >>
Time Temp. Humidity Pressure Rain* Wind** Luminosity Snow
1788278977 32.22° C 70% 1022 hPa 0 mm - 763 W/m² -
1788278673 32.22° C 71% 1022.2 hPa 0 mm - 761 W/m² -
1788278373 32.22° C 70% 1022.3 hPa 0 mm - 759 W/m² -
1788278067 32.78° C 70% 1022.1 hPa 0 mm - 755 W/m² -
1788277764 32.78° C 70% 1022.1 hPa 0 mm - 748 W/m² -
1788277463 33.33° C 67% 1022.2 hPa 0 mm - 742 W/m² -
1788277158 33.33° C 69% 1022.4 hPa 0 mm - 734 W/m² -
1788276858 33.33° C 69% 1022.1 hPa 0 mm - 726 W/m² -
1788276552 33.33° C 69% 1022.3 hPa 0 mm - 733 W/m² -
1788276247 33.33° C 68% 1022.3 hPa 0 mm - 710 W/m² -
1788275947 32.78° C 69% 1022.3 hPa 0 mm - 700 W/m² -
1788275647 32.22° C 69% 1022.3 hPa 0 mm - 689 W/m² -
1788275346 31.67° C 70% 1022.3 hPa 0 mm - 676 W/m² -
1788275044 31.67° C 68% 1022.3 hPa 0 mm - 659 W/m² -
1788274742 31.67° C 71% 1022.4 hPa 0 mm - 654 W/m² -
1788274442 31.11° C 70% 1022.4 hPa 0 mm - 638 W/m² -
1788274142 31.11° C 70% 1022.4 hPa 0 mm - 626 W/m² -
1788273837 30.56° C 74% 1022.4 hPa 0 mm - 611 W/m² -
1788273533 30° C 76% 1022.4 hPa 0 mm - 598 W/m² -
1788273229 30° C 78% 1022.3 hPa 0 mm - 588 W/m² -
1788272926 29.44° C 80% 1022.3 hPa 0 mm - 362 W/m² -
1788272624 29.44° C 81% 1022.4 hPa 0 mm - 558 W/m² -
1788272319 29.44° C 81% 1022 hPa 0 mm - 479 W/m² -
1788272014 28.89° C 83% 1022.1 hPa 0 mm - 414 W/m² -
1788271713 28.33° C 87% 1022.2 hPa 0 mm - 443 W/m² -

* Rain latest hour (hover to see other rain measurements)
** Current wind speed in m/s (hover to see current wind gust speed)